sensor_id;sensor_type;location;lat;lon;timestamp;P1;durP1;ratioP1;P2;durP2;ratioP2
18804;SDS011;9530;48.930;9.526;2022-09-27T00:00:36;1.40;;;1.07;;
18804;SDS011;9530;48.930;9.526;2022-09-27T00:03:04;1.40;;;0.80;;
18804;SDS011;9530;48.930;9.526;2022-09-27T00:05:31;2.77;;;1.10;;
18804;SDS011;9530;48.930;9.526;2022-09-27T00:07:58;2.27;;;0.90;;
18804;SDS011;9530;48.930;9.526;2022-09-27T00:10:24;3.67;;;0.87;;
18804;SDS011;9530;48.930;9.526;2022-09-27T00:12:51;2.73;;;0.80;;
18804;SDS011;9530;48.930;9.526;2022-09-27T00:15:18;1.03;;;0.87;;
18804;SDS011;9530;48.930;9.526;2022-09-27T00:17:45;0.90;;;0.80;;
18804;SDS011;9530;48.930;9.526;2022-09-27T00:20:17;1.37;;;0.90;;
18804;SDS011;9530;48.930;9.526;2022-09-27T00:22:45;1.33;;;0.90;;
18804;SDS011;9530;48.930;9.526;2022-09-27T00:25:12;1.77;;;0.80;;
18804;SDS011;9530;48.930;9.526;2022-09-27T00:27:39;4.77;;;1.10;;
18804;SDS011;9530;48.930;9.526;2022-09-27T00:30:06;0.90;;;0.80;;
18804;SDS011;9530;48.930;9.526;2022-09-27T00:32:33;2.63;;;1.17;;
18804;SDS011;9530;48.930;9.526;2022-09-27T00:35:00;1.00;;;0.83;;
18804;SDS011;9530;48.930;9.526;2022-09-27T00:37:28;1.73;;;1.00;;
18804;SDS011;9530;48.930;9.526;2022-09-27T00:39:54;3.53;;;1.00;;
18804;SDS011;9530;48.930;9.526;2022-09-27T00:42:21;2.03;;;0.90;;
18804;SDS011;9530;48.930;9.526;2022-09-27T00:44:58;3.50;;;1.00;;
18804;SDS011;9530;48.930;9.526;2022-09-27T00:47:29;1.17;;;0.83;;
18804;SDS011;9530;48.930;9.526;2022-09-27T00:50:03;2.33;;;0.80;;
18804;SDS011;9530;48.930;9.526;2022-09-27T00:52:37;2.23;;;1.00;;
18804;SDS011;9530;48.930;9.526;2022-09-27T00:55:09;1.90;;;1.03;;
18804;SDS011;9530;48.930;9.526;2022-09-27T00:57:38;2.67;;;0.80;;
18804;SDS011;9530;48.930;9.526;2022-09-27T01:00:09;1.50;;;0.90;;
18804;SDS011;9530;48.930;9.526;2022-09-27T01:02:39;1.50;;;0.90;;
18804;SDS011;9530;48.930;9.526;2022-09-27T01:05:09;2.20;;;0.70;;
18804;SDS011;9530;48.930;9.526;2022-09-27T01:07:39;0.80;;;0.77;;
18804;SDS011;9530;48.930;9.526;2022-09-27T01:10:06;2.33;;;0.90;;
18804;SDS011;9530;48.930;9.526;2022-09-27T01:12:36;1.07;;;0.80;;
18804;SDS011;9530;48.930;9.526;2022-09-27T01:15:11;5.37;;;0.83;;
18804;SDS011;9530;48.930;9.526;2022-09-27T01:17:47;1.10;;;0.80;;
18804;SDS011;9530;48.930;9.526;2022-09-27T01:20:38;2.37;;;0.80;;
18804;SDS011;9530;48.930;9.526;2022-09-27T01:23:37;0.80;;;0.70;;
18804;SDS011;9530;48.930;9.526;2022-09-27T01:26:26;1.70;;;0.90;;
18804;SDS011;9530;48.930;9.526;2022-09-27T01:29:10;1.33;;;0.80;;
18804;SDS011;9530;48.930;9.526;2022-09-27T01:31:44;0.73;;;0.63;;
18804;SDS011;9530;48.930;9.526;2022-09-27T01:34:17;1.53;;;0.80;;
18804;SDS011;9530;48.930;9.526;2022-09-27T01:36:50;0.93;;;0.80;;
18804;SDS011;9530;48.930;9.526;2022-09-27T01:39:21;2.50;;;0.80;;
18804;SDS011;9530;48.930;9.526;2022-09-27T01:41:59;0.87;;;0.80;;
18804;SDS011;9530;48.930;9.526;2022-09-27T01:44:30;3.07;;;0.80;;
18804;SDS011;9530;48.930;9.526;2022-09-27T01:47:03;1.23;;;0.93;;
18804;SDS011;9530;48.930;9.526;2022-09-27T01:49:38;1.10;;;0.80;;
18804;SDS011;9530;48.930;9.526;2022-09-27T01:52:08;1.90;;;0.80;;
18804;SDS011;9530;48.930;9.526;2022-09-27T01:54:39;2.27;;;0.80;;
18804;SDS011;9530;48.930;9.526;2022-09-27T01:57:10;0.83;;;0.70;;
18804;SDS011;9530;48.930;9.526;2022-09-27T01:59:42;1.80;;;0.80;;
18804;SDS011;9530;48.930;9.526;2022-09-27T02:02:13;1.37;;;0.70;;
18804;SDS011;9530;48.930;9.526;2022-09-27T02:04:43;0.80;;;0.70;;
18804;SDS011;9530;48.930;9.526;2022-09-27T02:07:14;0.90;;;0.70;;
18804;SDS011;9530;48.930;9.526;2022-09-27T02:09:46;5.13;;;1.10;;
18804;SDS011;9530;48.930;9.526;2022-09-27T02:12:15;0.70;;;0.70;;
18804;SDS011;9530;48.930;9.526;2022-09-27T02:14:46;2.67;;;0.80;;
18804;SDS011;9530;48.930;9.526;2022-09-27T02:17:20;2.70;;;0.80;;
18804;SDS011;9530;48.930;9.526;2022-09-27T02:19:56;1.33;;;0.90;;
18804;SDS011;9530;48.930;9.526;2022-09-27T02:22:31;0.77;;;0.70;;
18804;SDS011;9530;48.930;9.526;2022-09-27T02:25:05;0.70;;;0.70;;
18804;SDS011;9530;48.930;9.526;2022-09-27T02:27:39;2.53;;;0.90;;
18804;SDS011;9530;48.930;9.526;2022-09-27T02:30:15;1.57;;;0.90;;
18804;SDS011;9530;48.930;9.526;2022-09-27T02:32:44;3.70;;;0.70;;
18804;SDS011;9530;48.930;9.526;2022-09-27T02:35:12;1.00;;;0.80;;
18804;SDS011;9530;48.930;9.526;2022-09-27T02:37:42;0.93;;;0.63;;
18804;SDS011;9530;48.930;9.526;2022-09-27T02:40:09;1.13;;;0.80;;
18804;SDS011;9530;48.930;9.526;2022-09-27T02:42:36;0.90;;;0.73;;
18804;SDS011;9530;48.930;9.526;2022-09-27T02:45:04;0.70;;;0.70;;
18804;SDS011;9530;48.930;9.526;2022-09-27T02:47:38;1.20;;;0.67;;
18804;SDS011;9530;48.930;9.526;2022-09-27T02:50:43;1.00;;;0.70;;
18804;SDS011;9530;48.930;9.526;2022-09-27T02:53:21;2.83;;;1.00;;
18804;SDS011;9530;48.930;9.526;2022-09-27T02:56:02;1.13;;;0.90;;
18804;SDS011;9530;48.930;9.526;2022-09-27T02:58:38;2.27;;;0.70;;
18804;SDS011;9530;48.930;9.526;2022-09-27T03:01:14;4.20;;;0.90;;
18804;SDS011;9530;48.930;9.526;2022-09-27T03:03:54;4.83;;;0.93;;
18804;SDS011;9530;48.930;9.526;2022-09-27T03:06:28;2.77;;;1.13;;
18804;SDS011;9530;48.930;9.526;2022-09-27T03:08:57;4.97;;;1.20;;
18804;SDS011;9530;48.930;9.526;2022-09-27T03:11:23;2.00;;;1.23;;
18804;SDS011;9530;48.930;9.526;2022-09-27T03:13:50;2.23;;;1.00;;
18804;SDS011;9530;48.930;9.526;2022-09-27T03:16:17;3.10;;;1.20;;
18804;SDS011;9530;48.930;9.526;2022-09-27T03:18:44;2.20;;;1.07;;
18804;SDS011;9530;48.930;9.526;2022-09-27T03:21:12;5.40;;;1.37;;
18804;SDS011;9530;48.930;9.526;2022-09-27T03:23:38;3.57;;;1.30;;
18804;SDS011;9530;48.930;9.526;2022-09-27T03:26:05;2.47;;;1.10;;
18804;SDS011;9530;48.930;9.526;2022-09-27T03:28:32;2.83;;;0.93;;
18804;SDS011;9530;48.930;9.526;2022-09-27T03:30:59;3.67;;;1.40;;
18804;SDS011;9530;48.930;9.526;2022-09-27T03:33:26;2.57;;;1.20;;
18804;SDS011;9530;48.930;9.526;2022-09-27T03:35:53;3.50;;;1.43;;
18804;SDS011;9530;48.930;9.526;2022-09-27T03:38:21;3.33;;;1.30;;
18804;SDS011;9530;48.930;9.526;2022-09-27T03:40:47;4.37;;;1.10;;
18804;SDS011;9530;48.930;9.526;2022-09-27T03:43:14;2.93;;;1.10;;
18804;SDS011;9530;48.930;9.526;2022-09-27T03:45:41;1.73;;;0.93;;
18804;SDS011;9530;48.930;9.526;2022-09-27T03:48:09;4.57;;;1.30;;
18804;SDS011;9530;48.930;9.526;2022-09-27T03:50:36;3.47;;;1.20;;
18804;SDS011;9530;48.930;9.526;2022-09-27T03:53:03;3.23;;;1.23;;
18804;SDS011;9530;48.930;9.526;2022-09-27T03:55:31;3.17;;;1.37;;
18804;SDS011;9530;48.930;9.526;2022-09-27T03:57:58;3.33;;;1.30;;
18804;SDS011;9530;48.930;9.526;2022-09-27T04:00:24;2.87;;;1.50;;
18804;SDS011;9530;48.930;9.526;2022-09-27T04:02:51;3.60;;;1.23;;
18804;SDS011;9530;48.930;9.526;2022-09-27T04:05:18;2.67;;;1.20;;
18804;SDS011;9530;48.930;9.526;2022-09-27T04:07:45;4.13;;;1.20;;
18804;SDS011;9530;48.930;9.526;2022-09-27T04:10:13;5.07;;;1.27;;
18804;SDS011;9530;48.930;9.526;2022-09-27T04:12:42;5.23;;;1.60;;
18804;SDS011;9530;48.930;9.526;2022-09-27T04:15:09;4.80;;;1.30;;
18804;SDS011;9530;48.930;9.526;2022-09-27T04:17:37;5.00;;;1.50;;
18804;SDS011;9530;48.930;9.526;2022-09-27T04:20:06;4.40;;;1.57;;
18804;SDS011;9530;48.930;9.526;2022-09-27T04:22:33;5.50;;;1.50;;
18804;SDS011;9530;48.930;9.526;2022-09-27T04:25:00;6.07;;;1.60;;
18804;SDS011;9530;48.930;9.526;2022-09-27T04:27:26;3.13;;;1.30;;
18804;SDS011;9530;48.930;9.526;2022-09-27T04:29:54;3.67;;;1.40;;
18804;SDS011;9530;48.930;9.526;2022-09-27T04:32:21;2.43;;;1.30;;
18804;SDS011;9530;48.930;9.526;2022-09-27T04:34:48;4.40;;;1.70;;
18804;SDS011;9530;48.930;9.526;2022-09-27T04:37:32;4.93;;;1.43;;
18804;SDS011;9530;48.930;9.526;2022-09-27T04:39:59;4.23;;;1.67;;
18804;SDS011;9530;48.930;9.526;2022-09-27T04:42:26;4.80;;;1.80;;
18804;SDS011;9530;48.930;9.526;2022-09-27T04:44:54;5.33;;;1.73;;
18804;SDS011;9530;48.930;9.526;2022-09-27T04:47:21;4.33;;;1.80;;
18804;SDS011;9530;48.930;9.526;2022-09-27T04:49:47;5.07;;;1.83;;
18804;SDS011;9530;48.930;9.526;2022-09-27T04:52:14;5.40;;;2.10;;
18804;SDS011;9530;48.930;9.526;2022-09-27T04:54:41;4.87;;;1.93;;
18804;SDS011;9530;48.930;9.526;2022-09-27T04:57:07;8.57;;;2.00;;
18804;SDS011;9530;48.930;9.526;2022-09-27T04:59:36;6.43;;;1.73;;
18804;SDS011;9530;48.930;9.526;2022-09-27T05:02:05;3.00;;;1.73;;
18804;SDS011;9530;48.930;9.526;2022-09-27T05:04:32;6.37;;;2.07;;
18804;SDS011;9530;48.930;9.526;2022-09-27T05:06:59;6.17;;;2.00;;
18804;SDS011;9530;48.930;9.526;2022-09-27T05:09:25;6.10;;;1.93;;
18804;SDS011;9530;48.930;9.526;2022-09-27T05:11:52;6.73;;;2.40;;
18804;SDS011;9530;48.930;9.526;2022-09-27T05:14:19;8.43;;;2.17;;
18804;SDS011;9530;48.930;9.526;2022-09-27T05:16:45;6.43;;;1.77;;
18804;SDS011;9530;48.930;9.526;2022-09-27T05:19:14;5.17;;;2.00;;
18804;SDS011;9530;48.930;9.526;2022-09-27T05:21:40;4.03;;;1.70;;
18804;SDS011;9530;48.930;9.526;2022-09-27T05:24:07;6.77;;;1.90;;
18804;SDS011;9530;48.930;9.526;2022-09-27T05:26:34;7.83;;;2.20;;
18804;SDS011;9530;48.930;9.526;2022-09-27T05:29:01;7.60;;;2.30;;
18804;SDS011;9530;48.930;9.526;2022-09-27T05:31:28;7.57;;;1.93;;
18804;SDS011;9530;48.930;9.526;2022-09-27T05:33:55;5.60;;;1.87;;
18804;SDS011;9530;48.930;9.526;2022-09-27T05:36:23;4.17;;;1.87;;
18804;SDS011;9530;48.930;9.526;2022-09-27T05:38:50;5.23;;;1.90;;
18804;SDS011;9530;48.930;9.526;2022-09-27T05:41:17;6.57;;;2.00;;
18804;SDS011;9530;48.930;9.526;2022-09-27T05:43:44;4.77;;;2.00;;
18804;SDS011;9530;48.930;9.526;2022-09-27T05:46:11;4.40;;;1.73;;
18804;SDS011;9530;48.930;9.526;2022-09-27T05:48:38;7.37;;;1.90;;
18804;SDS011;9530;48.930;9.526;2022-09-27T05:51:05;6.73;;;1.90;;
18804;SDS011;9530;48.930;9.526;2022-09-27T05:53:33;4.50;;;1.93;;
18804;SDS011;9530;48.930;9.526;2022-09-27T05:56:00;4.83;;;1.80;;
18804;SDS011;9530;48.930;9.526;2022-09-27T05:58:28;3.77;;;1.70;;
18804;SDS011;9530;48.930;9.526;2022-09-27T06:00:54;3.73;;;1.60;;
18804;SDS011;9530;48.930;9.526;2022-09-27T06:03:21;6.10;;;2.10;;
18804;SDS011;9530;48.930;9.526;2022-09-27T06:05:48;6.07;;;1.90;;
18804;SDS011;9530;48.930;9.526;2022-09-27T06:08:14;5.97;;;1.73;;
18804;SDS011;9530;48.930;9.526;2022-09-27T06:10:42;3.83;;;1.53;;
18804;SDS011;9530;48.930;9.526;2022-09-27T06:13:10;4.03;;;1.50;;
18804;SDS011;9530;48.930;9.526;2022-09-27T06:15:38;2.83;;;1.53;;
18804;SDS011;9530;48.930;9.526;2022-09-27T06:18:07;5.33;;;1.57;;
18804;SDS011;9530;48.930;9.526;2022-09-27T06:20:35;5.20;;;1.90;;
18804;SDS011;9530;48.930;9.526;2022-09-27T06:23:06;5.53;;;1.50;;
18804;SDS011;9530;48.930;9.526;2022-09-27T06:25:34;4.37;;;1.53;;
18804;SDS011;9530;48.930;9.526;2022-09-27T06:28:03;4.73;;;1.30;;
18804;SDS011;9530;48.930;9.526;2022-09-27T06:30:30;1.87;;;1.27;;
18804;SDS011;9530;48.930;9.526;2022-09-27T06:32:57;2.63;;;1.30;;
18804;SDS011;9530;48.930;9.526;2022-09-27T06:35:25;2.37;;;1.10;;
18804;SDS011;9530;48.930;9.526;2022-09-27T06:37:51;2.67;;;1.37;;
18804;SDS011;9530;48.930;9.526;2022-09-27T06:40:19;2.10;;;1.30;;
18804;SDS011;9530;48.930;9.526;2022-09-27T06:42:48;3.80;;;1.30;;
18804;SDS011;9530;48.930;9.526;2022-09-27T06:45:16;3.43;;;1.23;;
18804;SDS011;9530;48.930;9.526;2022-09-27T06:47:43;4.37;;;1.50;;
18804;SDS011;9530;48.930;9.526;2022-09-27T06:50:10;2.30;;;1.37;;
18804;SDS011;9530;48.930;9.526;2022-09-27T06:52:38;1.63;;;1.10;;
18804;SDS011;9530;48.930;9.526;2022-09-27T06:55:12;2.57;;;1.13;;
18804;SDS011;9530;48.930;9.526;2022-09-27T06:57:39;3.13;;;1.40;;
18804;SDS011;9530;48.930;9.526;2022-09-27T07:00:24;2.33;;;1.60;;
18804;SDS011;9530;48.930;9.526;2022-09-27T07:02:52;4.93;;;1.93;;
18804;SDS011;9530;48.930;9.526;2022-09-27T07:05:25;4.20;;;1.50;;
18804;SDS011;9530;48.930;9.526;2022-09-27T07:07:51;3.57;;;2.03;;
18804;SDS011;9530;48.930;9.526;2022-09-27T07:10:22;4.07;;;1.70;;
18804;SDS011;9530;48.930;9.526;2022-09-27T07:12:50;3.20;;;1.63;;
18804;SDS011;9530;48.930;9.526;2022-09-27T07:15:17;2.93;;;2.00;;
18804;SDS011;9530;48.930;9.526;2022-09-27T07:17:46;4.40;;;1.30;;
18804;SDS011;9530;48.930;9.526;2022-09-27T07:20:13;3.53;;;1.63;;
18804;SDS011;9530;48.930;9.526;2022-09-27T07:22:40;2.03;;;1.33;;
18804;SDS011;9530;48.930;9.526;2022-09-27T07:25:09;2.00;;;1.40;;
18804;SDS011;9530;48.930;9.526;2022-09-27T07:27:36;2.63;;;1.40;;
18804;SDS011;9530;48.930;9.526;2022-09-27T07:30:05;2.60;;;1.37;;
18804;SDS011;9530;48.930;9.526;2022-09-27T07:32:33;5.43;;;1.63;;
18804;SDS011;9530;48.930;9.526;2022-09-27T07:35:02;4.20;;;1.47;;
18804;SDS011;9530;48.930;9.526;2022-09-27T07:37:30;2.87;;;1.77;;
18804;SDS011;9530;48.930;9.526;2022-09-27T07:39:57;3.30;;;1.50;;
18804;SDS011;9530;48.930;9.526;2022-09-27T07:42:24;1.00;;;0.90;;
18804;SDS011;9530;48.930;9.526;2022-09-27T07:44:52;1.47;;;1.10;;
18804;SDS011;9530;48.930;9.526;2022-09-27T07:47:19;1.03;;;0.83;;
18804;SDS011;9530;48.930;9.526;2022-09-27T07:49:48;2.80;;;1.10;;
18804;SDS011;9530;48.930;9.526;2022-09-27T07:52:16;2.60;;;1.30;;
18804;SDS011;9530;48.930;9.526;2022-09-27T07:54:43;1.70;;;0.83;;
18804;SDS011;9530;48.930;9.526;2022-09-27T07:57:09;1.13;;;1.03;;
18804;SDS011;9530;48.930;9.526;2022-09-27T07:59:37;1.30;;;1.17;;
18804;SDS011;9530;48.930;9.526;2022-09-27T08:02:04;1.53;;;0.90;;
18804;SDS011;9530;48.930;9.526;2022-09-27T08:04:31;2.83;;;1.00;;
18804;SDS011;9530;48.930;9.526;2022-09-27T08:06:58;1.87;;;1.27;;
18804;SDS011;9530;48.930;9.526;2022-09-27T08:09:26;1.33;;;0.77;;
18804;SDS011;9530;48.930;9.526;2022-09-27T08:11:54;2.07;;;0.80;;
18804;SDS011;9530;48.930;9.526;2022-09-27T08:14:22;6.13;;;3.50;;
18804;SDS011;9530;48.930;9.526;2022-09-27T08:16:49;2.07;;;1.13;;
18804;SDS011;9530;48.930;9.526;2022-09-27T08:19:16;1.33;;;0.90;;
18804;SDS011;9530;48.930;9.526;2022-09-27T08:21:44;2.40;;;0.80;;
18804;SDS011;9530;48.930;9.526;2022-09-27T08:24:11;3.10;;;1.47;;
18804;SDS011;9530;48.930;9.526;2022-09-27T08:26:39;1.53;;;1.20;;
18804;SDS011;9530;48.930;9.526;2022-09-27T08:29:06;1.50;;;1.20;;
18804;SDS011;9530;48.930;9.526;2022-09-27T08:31:33;5.17;;;2.77;;
18804;SDS011;9530;48.930;9.526;2022-09-27T08:34:00;2.17;;;1.40;;
18804;SDS011;9530;48.930;9.526;2022-09-27T08:36:26;2.27;;;1.30;;
18804;SDS011;9530;48.930;9.526;2022-09-27T08:38:54;2.77;;;1.30;;
18804;SDS011;9530;48.930;9.526;2022-09-27T08:41:25;3.27;;;1.20;;
18804;SDS011;9530;48.930;9.526;2022-09-27T08:44:05;1.70;;;1.10;;
18804;SDS011;9530;48.930;9.526;2022-09-27T08:46:38;4.87;;;1.10;;
18804;SDS011;9530;48.930;9.526;2022-09-27T08:49:15;1.83;;;1.30;;
18804;SDS011;9530;48.930;9.526;2022-09-27T08:51:47;1.50;;;1.03;;
18804;SDS011;9530;48.930;9.526;2022-09-27T08:54:18;4.63;;;1.20;;
18804;SDS011;9530;48.930;9.526;2022-09-27T08:56:47;1.93;;;1.20;;
18804;SDS011;9530;48.930;9.526;2022-09-27T08:59:15;1.90;;;1.07;;
18804;SDS011;9530;48.930;9.526;2022-09-27T09:01:46;2.40;;;1.50;;
18804;SDS011;9530;48.930;9.526;2022-09-27T09:04:13;3.00;;;1.60;;
18804;SDS011;9530;48.930;9.526;2022-09-27T09:06:47;2.90;;;1.40;;
18804;SDS011;9530;48.930;9.526;2022-09-27T09:09:25;2.83;;;1.27;;
18804;SDS011;9530;48.930;9.526;2022-09-27T09:11:59;1.93;;;1.03;;
18804;SDS011;9530;48.930;9.526;2022-09-27T09:14:57;1.83;;;1.30;;
18804;SDS011;9530;48.930;9.526;2022-09-27T09:17:44;1.40;;;1.30;;
18804;SDS011;9530;48.930;9.526;2022-09-27T09:20:21;5.60;;;1.27;;
18804;SDS011;9530;48.930;9.526;2022-09-27T09:25:54;2.93;;;1.70;;
18804;SDS011;9530;48.930;9.526;2022-09-27T09:28:28;2.33;;;1.60;;
18804;SDS011;9530;48.930;9.526;2022-09-27T09:31:07;2.73;;;1.77;;
18804;SDS011;9530;48.930;9.526;2022-09-27T09:33:40;3.10;;;1.60;;
18804;SDS011;9530;48.930;9.526;2022-09-27T09:36:17;3.97;;;1.60;;
18804;SDS011;9530;48.930;9.526;2022-09-27T09:38:49;2.33;;;1.30;;
18804;SDS011;9530;48.930;9.526;2022-09-27T09:41:21;2.63;;;1.40;;
18804;SDS011;9530;48.930;9.526;2022-09-27T09:43:51;4.70;;;1.80;;
18804;SDS011;9530;48.930;9.526;2022-09-27T09:46:24;4.17;;;1.70;;
18804;SDS011;9530;48.930;9.526;2022-09-27T09:48:53;3.07;;;1.50;;
18804;SDS011;9530;48.930;9.526;2022-09-27T09:51:24;3.33;;;1.50;;
18804;SDS011;9530;48.930;9.526;2022-09-27T09:53:55;4.00;;;1.43;;
18804;SDS011;9530;48.930;9.526;2022-09-27T09:56:28;2.43;;;1.30;;
18804;SDS011;9530;48.930;9.526;2022-09-27T09:58:57;4.43;;;1.30;;
18804;SDS011;9530;48.930;9.526;2022-09-27T10:01:29;3.97;;;1.70;;
18804;SDS011;9530;48.930;9.526;2022-09-27T10:04:00;2.67;;;1.53;;
18804;SDS011;9530;48.930;9.526;2022-09-27T10:06:27;2.77;;;1.57;;
18804;SDS011;9530;48.930;9.526;2022-09-27T10:08:55;2.63;;;1.60;;
18804;SDS011;9530;48.930;9.526;2022-09-27T10:11:23;3.83;;;1.70;;
18804;SDS011;9530;48.930;9.526;2022-09-27T10:13:51;3.10;;;1.57;;
18804;SDS011;9530;48.930;9.526;2022-09-27T10:16:19;3.63;;;1.57;;
18804;SDS011;9530;48.930;9.526;2022-09-27T10:18:48;2.63;;;1.37;;
18804;SDS011;9530;48.930;9.526;2022-09-27T10:21:19;2.23;;;1.40;;
18804;SDS011;9530;48.930;9.526;2022-09-27T10:24:03;3.63;;;1.40;;
18804;SDS011;9530;48.930;9.526;2022-09-27T10:26:33;3.40;;;1.70;;
18804;SDS011;9530;48.930;9.526;2022-09-27T10:31:50;2.57;;;1.07;;
18804;SDS011;9530;48.930;9.526;2022-09-27T10:34:23;2.80;;;1.40;;
18804;SDS011;9530;48.930;9.526;2022-09-27T10:37:00;2.73;;;1.30;;
18804;SDS011;9530;48.930;9.526;2022-09-27T10:39:31;2.90;;;1.53;;
18804;SDS011;9530;48.930;9.526;2022-09-27T10:41:59;3.87;;;1.50;;
18804;SDS011;9530;48.930;9.526;2022-09-27T10:44:26;3.97;;;1.53;;
18804;SDS011;9530;48.930;9.526;2022-09-27T10:46:57;5.67;;;1.50;;
18804;SDS011;9530;48.930;9.526;2022-09-27T10:49:28;3.03;;;1.20;;
18804;SDS011;9530;48.930;9.526;2022-09-27T10:51:57;3.60;;;1.30;;
18804;SDS011;9530;48.930;9.526;2022-09-27T10:54:27;4.30;;;1.77;;
18804;SDS011;9530;48.930;9.526;2022-09-27T10:56:57;7.03;;;3.40;;
18804;SDS011;9530;48.930;9.526;2022-09-27T10:59:26;4.07;;;1.67;;
18804;SDS011;9530;48.930;9.526;2022-09-27T11:01:55;3.70;;;1.40;;
18804;SDS011;9530;48.930;9.526;2022-09-27T11:04:25;4.13;;;1.73;;
18804;SDS011;9530;48.930;9.526;2022-09-27T11:07:12;4.90;;;1.40;;
18804;SDS011;9530;48.930;9.526;2022-09-27T11:09:44;4.47;;;1.70;;
18804;SDS011;9530;48.930;9.526;2022-09-27T11:12:16;3.87;;;2.07;;
18804;SDS011;9530;48.930;9.526;2022-09-27T11:14:45;4.03;;;1.47;;
18804;SDS011;9530;48.930;9.526;2022-09-27T11:17:18;4.70;;;1.60;;
18804;SDS011;9530;48.930;9.526;2022-09-27T11:20:11;1.60;;;1.10;;
18804;SDS011;9530;48.930;9.526;2022-09-27T11:22:47;5.03;;;1.50;;
18804;SDS011;9530;48.930;9.526;2022-09-27T11:25:56;3.13;;;1.23;;
18804;SDS011;9530;48.930;9.526;2022-09-27T11:28:32;4.13;;;1.97;;
18804;SDS011;9530;48.930;9.526;2022-09-27T11:31:07;4.23;;;1.70;;
18804;SDS011;9530;48.930;9.526;2022-09-27T11:33:46;5.80;;;1.60;;
18804;SDS011;9530;48.930;9.526;2022-09-27T11:36:25;3.30;;;1.60;;
18804;SDS011;9530;48.930;9.526;2022-09-27T11:39:01;2.57;;;1.40;;
18804;SDS011;9530;48.930;9.526;2022-09-27T11:41:44;3.50;;;1.30;;
18804;SDS011;9530;48.930;9.526;2022-09-27T11:44:30;3.30;;;1.40;;
18804;SDS011;9530;48.930;9.526;2022-09-27T11:47:13;5.00;;;1.70;;
18804;SDS011;9530;48.930;9.526;2022-09-27T11:49:57;4.80;;;1.43;;
18804;SDS011;9530;48.930;9.526;2022-09-27T11:52:54;2.87;;;1.80;;
18804;SDS011;9530;48.930;9.526;2022-09-27T11:55:35;3.80;;;2.03;;
18804;SDS011;9530;48.930;9.526;2022-09-27T11:58:11;4.60;;;2.10;;
18804;SDS011;9530;48.930;9.526;2022-09-27T12:00:50;5.83;;;1.90;;
18804;SDS011;9530;48.930;9.526;2022-09-27T12:03:33;6.93;;;2.80;;
18804;SDS011;9530;48.930;9.526;2022-09-27T12:06:31;4.73;;;2.20;;
18804;SDS011;9530;48.930;9.526;2022-09-27T12:09:08;3.20;;;1.90;;
18804;SDS011;9530;48.930;9.526;2022-09-27T12:11:38;4.73;;;2.20;;
18804;SDS011;9530;48.930;9.526;2022-09-27T12:14:10;7.50;;;2.67;;
18804;SDS011;9530;48.930;9.526;2022-09-27T12:16:42;7.33;;;2.97;;
18804;SDS011;9530;48.930;9.526;2022-09-27T12:19:12;4.93;;;1.90;;
18804;SDS011;9530;48.930;9.526;2022-09-27T12:21:43;3.07;;;1.20;;
18804;SDS011;9530;48.930;9.526;2022-09-27T12:24:14;2.93;;;1.03;;
18804;SDS011;9530;48.930;9.526;2022-09-27T12:26:45;2.13;;;0.90;;
18804;SDS011;9530;48.930;9.526;2022-09-27T12:29:17;1.13;;;0.80;;
18804;SDS011;9530;48.930;9.526;2022-09-27T12:31:48;3.37;;;1.00;;
18804;SDS011;9530;48.930;9.526;2022-09-27T12:34:23;2.20;;;1.40;;
18804;SDS011;9530;48.930;9.526;2022-09-27T12:36:55;1.40;;;1.00;;
18804;SDS011;9530;48.930;9.526;2022-09-27T12:39:29;2.40;;;1.10;;
18804;SDS011;9530;48.930;9.526;2022-09-27T12:42:05;3.10;;;1.33;;
18804;SDS011;9530;48.930;9.526;2022-09-27T12:44:39;3.90;;;1.67;;
18804;SDS011;9530;48.930;9.526;2022-09-27T12:47:08;1.53;;;1.00;;
18804;SDS011;9530;48.930;9.526;2022-09-27T12:49:44;1.93;;;1.17;;
18804;SDS011;9530;48.930;9.526;2022-09-27T12:52:19;1.40;;;1.10;;
18804;SDS011;9530;48.930;9.526;2022-09-27T12:57:47;3.33;;;1.33;;
18804;SDS011;9530;48.930;9.526;2022-09-27T13:00:36;1.47;;;0.70;;
18804;SDS011;9530;48.930;9.526;2022-09-27T13:03:14;1.10;;;0.90;;
18804;SDS011;9530;48.930;9.526;2022-09-27T13:12:07;1.33;;;0.70;;
18804;SDS011;9530;48.930;9.526;2022-09-27T13:14:38;1.83;;;0.97;;
18804;SDS011;9530;48.930;9.526;2022-09-27T13:22:58;2.00;;;1.20;;
18804;SDS011;9530;48.930;9.526;2022-09-27T13:31:00;1.83;;;1.23;;
18804;SDS011;9530;48.930;9.526;2022-09-27T13:36:18;3.13;;;1.13;;
18804;SDS011;9530;48.930;9.526;2022-09-27T13:38:56;1.60;;;1.27;;
18804;SDS011;9530;48.930;9.526;2022-09-27T13:41:33;1.17;;;0.97;;
18804;SDS011;9530;48.930;9.526;2022-09-27T13:44:19;2.53;;;1.37;;
18804;SDS011;9530;48.930;9.526;2022-09-27T13:46:52;1.53;;;1.00;;
18804;SDS011;9530;48.930;9.526;2022-09-27T13:49:23;1.33;;;0.90;;
18804;SDS011;9530;48.930;9.526;2022-09-27T13:51:55;1.47;;;1.00;;
18804;SDS011;9530;48.930;9.526;2022-09-27T13:54:35;4.20;;;0.93;;
18804;SDS011;9530;48.930;9.526;2022-09-27T13:57:37;1.23;;;0.90;;
18804;SDS011;9530;48.930;9.526;2022-09-27T14:00:12;1.40;;;1.00;;
18804;SDS011;9530;48.930;9.526;2022-09-27T14:02:45;2.03;;;1.10;;
18804;SDS011;9530;48.930;9.526;2022-09-27T14:05:19;2.03;;;1.10;;
18804;SDS011;9530;48.930;9.526;2022-09-27T14:07:49;1.40;;;0.90;;
18804;SDS011;9530;48.930;9.526;2022-09-27T14:10:18;2.20;;;1.00;;
18804;SDS011;9530;48.930;9.526;2022-09-27T14:12:48;1.50;;;1.20;;
18804;SDS011;9530;48.930;9.526;2022-09-27T14:15:19;1.60;;;1.10;;
18804;SDS011;9530;48.930;9.526;2022-09-27T14:17:48;3.37;;;1.40;;
18804;SDS011;9530;48.930;9.526;2022-09-27T14:20:28;2.47;;;1.70;;
18804;SDS011;9530;48.930;9.526;2022-09-27T14:22:57;1.70;;;1.30;;
18804;SDS011;9530;48.930;9.526;2022-09-27T14:25:23;2.43;;;1.53;;
18804;SDS011;9530;48.930;9.526;2022-09-27T14:27:50;3.23;;;1.40;;
18804;SDS011;9530;48.930;9.526;2022-09-27T14:30:19;1.40;;;1.10;;
18804;SDS011;9530;48.930;9.526;2022-09-27T14:32:48;2.63;;;1.40;;
18804;SDS011;9530;48.930;9.526;2022-09-27T14:35:16;2.40;;;1.37;;
18804;SDS011;9530;48.930;9.526;2022-09-27T14:38:02;1.30;;;1.10;;
18804;SDS011;9530;48.930;9.526;2022-09-27T14:40:33;1.77;;;1.13;;
18804;SDS011;9530;48.930;9.526;2022-09-27T14:43:05;2.13;;;1.10;;
18804;SDS011;9530;48.930;9.526;2022-09-27T14:45:38;2.47;;;1.70;;
18804;SDS011;9530;48.930;9.526;2022-09-27T14:48:16;3.13;;;1.80;;
18804;SDS011;9530;48.930;9.526;2022-09-27T14:50:51;5.00;;;1.70;;
18804;SDS011;9530;48.930;9.526;2022-09-27T14:53:21;2.27;;;1.60;;
18804;SDS011;9530;48.930;9.526;2022-09-27T14:55:49;2.50;;;1.30;;
18804;SDS011;9530;48.930;9.526;2022-09-27T14:58:18;2.90;;;1.80;;
18804;SDS011;9530;48.930;9.526;2022-09-27T15:00:48;2.10;;;1.30;;
18804;SDS011;9530;48.930;9.526;2022-09-27T15:03:16;4.73;;;1.80;;
18804;SDS011;9530;48.930;9.526;2022-09-27T15:05:48;2.00;;;1.17;;
18804;SDS011;9530;48.930;9.526;2022-09-27T15:08:16;2.80;;;1.50;;
18804;SDS011;9530;48.930;9.526;2022-09-27T15:10:44;2.40;;;1.20;;
18804;SDS011;9530;48.930;9.526;2022-09-27T15:13:12;1.87;;;1.50;;
18804;SDS011;9530;48.930;9.526;2022-09-27T15:15:42;1.60;;;1.10;;
18804;SDS011;9530;48.930;9.526;2022-09-27T15:20:57;3.27;;;2.00;;
18804;SDS011;9530;48.930;9.526;2022-09-27T15:23:25;3.57;;;1.83;;
18804;SDS011;9530;48.930;9.526;2022-09-27T15:25:57;2.80;;;1.60;;
18804;SDS011;9530;48.930;9.526;2022-09-27T15:28:27;2.43;;;1.20;;
18804;SDS011;9530;48.930;9.526;2022-09-27T15:30:56;1.20;;;1.00;;
18804;SDS011;9530;48.930;9.526;2022-09-27T15:33:24;2.23;;;1.50;;
18804;SDS011;9530;48.930;9.526;2022-09-27T15:35:54;3.80;;;2.43;;
18804;SDS011;9530;48.930;9.526;2022-09-27T15:38:27;4.53;;;2.60;;
18804;SDS011;9530;48.930;9.526;2022-09-27T15:41:08;6.00;;;2.10;;
18804;SDS011;9530;48.930;9.526;2022-09-27T15:43:41;4.50;;;2.00;;
18804;SDS011;9530;48.930;9.526;2022-09-27T15:46:26;2.77;;;1.73;;
18804;SDS011;9530;48.930;9.526;2022-09-27T15:51:48;3.40;;;1.67;;
18804;SDS011;9530;48.930;9.526;2022-09-27T15:54:16;4.37;;;2.80;;
18804;SDS011;9530;48.930;9.526;2022-09-27T15:56:44;3.77;;;2.13;;
18804;SDS011;9530;48.930;9.526;2022-09-27T15:59:11;3.47;;;1.67;;